Plaster Rock, Canada
Current Conditions -  °F | °C
As of 12:54 AM on Saturday 29 Nov 2014 (Local Time) from KCAR Reporting Station
Broken Clouds Broken Clouds  
Wind Chill:   Ceiling: 5500
Heat Index: 12°   Visibility: 10mi
Dew Point:   Wind: 6mph
Humidity: 84%   Direction: 300°WNW
Pressure: 30.03"   Gusts: NA
Location:  46.9°N, 67.38°W
Report Text: KCAR 290454Z AUTO 30005KT 10SM BKN055 M11/M13 A3003 RMK AO2 SLP186 I1000 T11111133 410671144
Loading
Personal Weather Stations






























Interactive Weather Map New forecast layout! Learn more

10-Day Weather Forecast

Advertisements
Track Severe Weather on mobile